Latest Weather Observations for Mount Read

IDT60801

Issued at 3:35 pm EST Saturday 20 September 2014 (issued every 30 minutes, with the page automatically refreshed every 10 minutes)

About weather observations | Map of weather stations | Latest weather observations for TAS | Other Formats
Station Details ID: 097085 Name: MOUNT READ Lat: -41.84 Lon: 145.54 Height: 1119.5 m
Data from the previous 72 hours. | See also: Recent months at Mount Read
Date/Time
EST
Temp
°C
App
Temp
°C
Dew
Point
Rel
Hum
%
Delta-T
°C
Wind Press
QNH
hPa
Press
MSL
hPa
Rain
since 9 am
mm
Dir
 
Spd
km/h
Gust
km/h
Spd
kts
Gust
kts
20/03:30pm 2.4 -4.9 2.3 99 0.0 SSW 30 43 16 23 1024.4 1026.4 3.6
20/03:00pm 2.1 -6.2 2.0 99 0.0 SW 35 48 19 26 1024.2 1026.3 3.6
20/02:30pm 2.7 -4.2 2.6 99 0.0 SSW 28 41 15 22 1024.4 1026.4 3.0
20/02:00pm 2.7 -4.6 2.6 99 0.0 SW 30 39 16 21 1024.1 1026.2 2.4
20/01:30pm 3.0 -2.3 2.9 99 0.0 SW 20 32 11 17 1024.2 1026.3 2.2
20/01:00pm 3.0 -3.5 2.9 99 0.0 SSW 26 37 14 20 1024.4 1026.4 2.0
20/12:30pm 3.0 -3.5 2.9 99 0.0 SSW 26 35 14 19 1024.4 1026.4 1.8
20/12:00pm 2.6 -3.5 2.5 99 0.0 SW 24 35 13 19 1024.4 1026.4 1.6
20/11:30am 3.1 -2.2 3.0 99 0.0 SW 20 33 11 18 1024.2 1026.3 1.6
20/11:00am 2.8 -4.1 2.7 99 0.0 SW 28 39 15 21 1024.1 1026.2 1.6
20/10:30am 2.6 -3.5 2.5 99 0.0 SSW 24 41 13 22 1024.0 1026.1 1.4
20/10:00am 2.8 -3.3 2.7 99 0.0 SSW 24 37 13 20 1023.9 1026.0 0.8
20/09:30am 2.5 -4.0 2.4 99 0.0 SSW 26 33 14 18 1023.9 1026.0 0.4
20/09:00am 2.4 -4.5 2.3 99 0.0 SSW 28 41 15 22 1023.6 1025.6 34.0
20/08:30am 2.5 -2.9 2.4 99 0.0 SSW 20 28 11 15 1023.4 1025.4 33.8
20/08:00am 2.3 -6.7 2.2 99 0.0 SW 39 46 21 25 1022.8 1024.8 33.4
20/07:30am 2.4 -5.3 2.3 99 0.0 SSW 32 44 17 24 1022.7 1024.7 33.0
20/07:00am 2.2 -5.2 2.1 99 0.0 SW 30 41 16 22 1022.4 1024.4 32.4
20/06:30am 2.2 -5.7 2.1 99 0.0 SSW 33 41 18 22 1021.9 1023.9 32.0
20/06:00am 2.3 -6.0 2.2 99 0.0 SSW 35 44 19 24 1021.4 1023.3 31.0
20/05:30am 2.4 -5.9 2.3 99 0.0 SSW 35 44 19 24 1021.0 1023.0 30.6
20/05:00am 2.1 -7.0 2.0 99 0.0 SSW 39 46 21 25 1020.6 1022.5 30.0
20/04:30am 2.2 -7.2 2.1 99 0.0 SSW 41 54 22 29 1020.2 1022.2 30.0
20/04:00am 2.3 -6.7 2.2 99 0.0 SSW 39 52 21 28 1020.0 1021.9 29.8
20/03:30am 2.2 -7.2 2.1 99 0.0 SSW 41 50 22 27 1020.0 1021.9 29.8
20/03:00am 2.5 -6.9 2.4 99 0.0 SSW 41 52 22 28 1019.8 1021.7 29.4
20/02:30am 2.4 -6.6 2.3 99 0.0 SSW 39 50 21 27 1019.7 1021.6 29.2
20/02:00am 2.7 -6.7 2.6 99 0.0 SSW 41 50 22 27 1019.7 1021.6 28.8
20/01:33am 2.7 -5.5 2.6 99 0.0 SSW 35 54 19 29 1019.7 1021.6 27.2
20/01:30am 2.8 -4.8 2.7 99 0.0 SSW 32 43 17 23 1019.9 1021.8 27.2
20/01:00am 2.7 -6.3 2.6 99 0.0 SSW 39 52 21 28 1019.8 1021.7 26.0
20/12:33am 2.7 -6.7 2.6 99 0.0 SSW 41 59 22 32 1019.6 1021.5 25.6
20/12:30am 2.7 -7.0 2.6 99 0.0 SSW 43 59 23 32 1019.6 1021.5 25.6
20/12:00am 2.6 -7.3 2.5 99 0.0 SSW 44 59 24 32 1019.1 1021.0 25.4
 
Date/Time
EST
Temp
°C
App
Temp
°C
Dew
Point
Rel
Hum
%
Delta-T
°C
Wind Press
QNH
hPa
Press
MSL
hPa
Rain
since 9 am
mm
Dir
 
Spd
km/h
Gust
km/h
Spd
kts
Gust
kts
19/11:30pm 2.5 -7.8 2.4 99 0.0 SSW 46 59 25 32 1019.3 1021.3 25.0
19/11:00pm 2.9 -6.8 2.8 99 0.0 SSW 43 61 23 33 1019.5 1021.4 24.4
19/10:30pm 2.7 -7.0 2.6 99 0.0 SSW 43 57 23 31 1019.3 1021.3 23.8
19/10:00pm 2.7 -7.6 2.6 99 0.0 SSW 46 59 25 32 1019.3 1021.3 23.8
19/09:30pm 2.7 -7.0 2.6 99 0.0 SSW 43 56 23 30 1019.2 1021.1 23.2
19/09:00pm 2.8 -7.5 2.7 99 0.0 SSW 46 59 25 32 1019.2 1021.1 23.0
19/08:30pm 2.7 -7.2 2.6 99 0.0 SSW 44 59 24 32 1019.0 1020.9 21.8
19/08:20pm 3.0 -6.3 2.9 99 0.0 SSW 41 61 22 33 1019.0 1020.9 20.4
19/08:00pm 2.9 -7.0 2.8 99 0.0 SSW 44 56 24 30 1018.8 1020.7 20.0
19/07:30pm 2.8 -5.8 2.7 99 0.0 SSW 37 52 20 28 1019.0 1020.9 19.0
19/07:00pm 2.9 -4.7 2.8 99 0.0 SSW 32 41 17 22 1019.0 1020.9 17.8
19/06:30pm 2.8 -6.2 2.7 99 0.0 SSW 39 50 21 27 1018.7 1020.6 16.8
19/06:02pm 2.7 -5.1 2.6 99 0.0 SSW 33 52 18 28 1018.7 1020.6 15.8
19/06:00pm 2.7 -5.5 2.6 99 0.0 SSW 35 52 19 28 1018.6 1020.5 15.6
19/05:30pm 2.9 -6.0 2.8 99 0.0 SSW 39 54 21 29 1018.1 1020.0 14.4
19/05:00pm 2.9 -6.0 2.8 99 0.0 SSW 39 48 21 26 1018.0 1019.9 13.6
19/04:32pm 3.1 -6.6 3.0 99 0.0 SW 43 67 23 36 1017.8 1019.7 13.2
19/04:30pm 3.1 -6.2 3.0 99 0.0 SW 41 56 22 30 1017.9 1019.8 13.0
19/04:10pm 3.3 -3.5 3.2 99 0.0 SW 28 52 15 28 1018.0 1019.9 12.2
19/04:00pm 3.2 -3.2 3.1 99 0.0 SW 26 33 14 18 1017.9 1019.8 11.4
19/03:30pm 3.0 -7.3 2.9 99 0.0 SSW 46 57 25 31 1017.7 1019.5 11.2
19/03:00pm 3.1 -6.6 3.0 99 0.0 SW 43 59 23 32 1017.7 1019.5 11.0
19/02:30pm 3.6 -3.9 3.5 99 0.0 SSW 32 44 17 24 1017.8 1019.7 10.2
19/02:00pm 3.3 -5.2 3.2 99 0.0 SW 37 54 20 29 1017.7 1019.5 9.8
19/01:30pm 3.3 -4.2 3.2 99 0.0 SSW 32 46 17 25 1018.0 1019.9 8.6
19/01:29pm 3.4 -4.3 3.3 99 0.0 SSW 33 54 18 29 1018.0 1019.9 8.6
19/01:00pm 3.1 -5.4 3.0 99 0.0 SSW 37 56 20 30 1017.8 1019.7 8.0
19/12:30pm 3.3 -5.6 3.2 99 0.0 SW 39 56 21 30 1018.0 1019.9 7.2
19/12:00pm 3.2 -4.9 3.1 99 0.0 SW 35 54 19 29 1018.0 1019.9 5.6
19/11:30am 3.1 -6.8 3.0 99 0.0 SSW 44 54 24 29 1017.8 1019.7 4.6
19/11:00am 3.2 -4.0 3.1 99 0.0 SSW 30 50 16 27 1017.9 1019.8 3.6
19/10:43am 2.8 -5.4 2.7 99 0.0 SW 35 61 19 33 1017.9 1019.8 3.4
19/10:30am 2.7 -4.6 2.6 99 0.0 SSW 30 44 16 24 1017.9 1019.8 2.6
19/10:15am 2.9 -5.7 2.8 99 0.0 SSW 37 56 20 30 1017.8 1019.7 2.2
19/10:00am 2.7 -6.7 2.6 99 0.0 SSW 41 56 22 30 1017.8 1019.7 2.2
19/09:30am 2.5 -6.1 2.4 99 0.0 SSW 37 61 20 33 1017.8 1019.7 0.2
19/09:27am 2.6 -6.8 2.5 99 0.0 SSW 41 61 22 33 1017.7 1019.5 0.2
19/09:00am 2.3 -7.5 2.2 99 0.0 SSW 43 61 23 33 1017.3 1019.2 52.0
19/08:36am 2.4 -8.7 2.3 99 0.0 SSW 50 69 27 37 1017.1 1019.0 52.0
19/08:30am 2.3 -9.6 2.2 99 0.0 SSW 54 69 29 37 1016.8 1018.6 52.0
19/08:12am 2.3 -9.2 2.2 99 0.0 SSW 52 70 28 38 1016.6 1018.4 51.8
19/08:00am 2.3 -8.1 2.2 99 0.0 SSW 46 63 25 34 1016.8 1018.6 51.8
19/07:37am 2.1 -9.8 2.0 99 0.0 SSW 54 74 29 40 1016.2 1018.1 51.2
19/07:30am 2.0 -9.9 1.9 99 0.0 SSW 54 67 29 36 1016.2 1018.1 51.2
19/07:05am 1.9 -10.4 1.8 99 0.0 SSW 56 76 30 41 1016.3 1018.2 51.2
19/07:00am 1.9 -10.6 1.8 99 0.0 SSW 57 76 31 41 1016.1 1017.9 51.2
19/06:58am 2.0 -10.3 1.9 99 0.0 SSW 56 76 30 41 1016.1 1017.9 51.0
19/06:39am 1.9 -11.4 1.8 99 0.0 SW 61 74 33 40 1015.6 1017.4 50.6
19/06:30am 1.9 -7.2 1.8 99 0.0 SW 39 59 21 32 1016.2 1018.1 49.8
19/06:00am 2.1 -8.3 2.0 99 0.0 SSW 46 65 25 35 1015.7 1017.5 48.6
19/05:33am 1.9 -8.2 1.8 99 0.0 SW 44 65 24 35 1015.4 1017.2 46.4
19/05:30am 2.0 -8.4 1.9 99 0.0 SW 46 65 25 35 1015.3 1017.1 46.4
19/05:09am 1.9 -8.0 1.8 99 0.0 SW 43 63 23 34 1015.4 1017.2 45.4
19/05:00am 1.7 -9.5 1.6 99 0.0 SW 50 65 27 35 1015.3 1017.1 45.0
19/04:34am 1.9 -7.6 1.8 99 0.0 SSW 41 61 22 33 1015.4 1017.2 44.2
19/04:30am 1.8 -7.3 1.7 99 0.0 SW 39 46 21 25 1015.4 1017.2 44.0
19/04:29am 1.7 -7.1 1.6 99 0.0 SW 37 44 20 24 1015.4 1017.2 43.8
19/04:00am 1.5 -11.5 1.4 99 0.0 SW 59 82 32 44 1014.9 1016.7 42.6
19/03:30am 1.6 -11.4 1.5 99 0.0 SW 59 80 32 43 1014.7 1016.4 42.4
19/03:01am 1.7 -10.3 1.6 99 0.0 SW 54 76 29 41 1014.8 1016.6 41.6
19/03:00am 1.7 -10.3 1.6 99 0.0 SW 54 72 29 39 1014.7 1016.4 41.4
19/02:30am 1.5 -11.5 1.4 99 0.0 SW 59 82 32 44 1014.5 1016.3 40.2
19/02:15am 2.1 -8.3 2.0 99 0.0 SW 46 65 25 35 1015.0 1016.8 38.6
19/02:12am 2.0 -7.1 1.9 99 0.0 SW 39 54 21 29 1015.1 1016.9 38.2
19/02:00am 1.8 -11.1 1.7 99 0.0 SW 59 80 32 43 1014.7 1016.4 36.8
19/01:43am 1.8 -10.6 1.7 99 0.0 SW 56 76 30 41 1014.8 1016.6 35.8
19/01:30am 1.7 -9.9 1.6 99 0.0 SW 52 65 28 35 1015.2 1017.0 35.2
19/01:09am 1.6 -9.7 1.5 99 0.0 SW 50 70 27 38 1015.6 1017.4 34.2
19/01:00am 1.7 -10.3 1.6 99 0.0 SW 54 69 29 37 1015.4 1017.2 34.0
19/12:43am 1.6 -12.1 1.5 99 0.0 SW 63 74 34 40 1015.3 1017.1 33.6
19/12:30am 1.6 -8.3 1.5 99 0.0 SW 43 65 23 35 1015.9 1017.7 33.0
19/12:06am 1.6 -10.4 1.5 99 0.0 SW 54 72 29 39 1015.6 1017.4 32.2
19/12:00am 1.5 -11.5 1.4 99 0.0 SW 59 76 32 41 1015.3 1017.1 32.0
 
Date/Time
EST
Temp
°C
App
Temp
°C
Dew
Point
Rel
Hum
%
Delta-T
°C
Wind Press
QNH
hPa
Press
MSL
hPa
Rain
since 9 am
mm
Dir
 
Spd
km/h
Gust
km/h
Spd
kts
Gust
kts
18/11:34pm 1.4 -9.5 1.3 99 0.0 SW 48 69 26 37 1015.7 1017.5 31.6
18/11:30pm 1.5 -9.4 1.4 99 0.0 SW 48 65 26 35 1015.8 1017.6 31.6
18/11:05pm 1.4 -8.6 1.3 99 0.0 SW 43 65 23 35 1016.1 1017.9 30.6
18/11:00pm 1.3 -9.2 1.2 99 0.0 SSW 46 63 25 34 1016.0 1017.8 30.4
18/10:31pm 1.4 -6.7 1.3 99 0.0 SW 33 57 18 31 1016.3 1018.2 30.4
18/10:30pm 1.3 -6.6 1.2 99 0.0 SW 32 48 17 26 1016.3 1018.2 30.4
18/10:21pm 1.5 -7.7 1.4 99 0.0 SW 39 57 21 31 1016.3 1018.2 30.2
18/10:00pm 1.3 -8.7 1.2 99 0.0 SW 43 59 23 32 1016.2 1018.1 30.0
18/09:38pm 1.1 -9.9 1.0 99 0.0 SSW 48 69 26 37 1016.1 1017.9 29.6
18/09:30pm 1.1 -11.0 1.0 99 0.0 SSW 54 67 29 36 1016.0 1017.8 29.6
18/09:00pm 1.1 -9.5 1.0 99 0.0 SW 46 67 25 36 1016.3 1018.2 29.4
18/08:40pm 1.0 -10.7 0.9 99 0.0 SSW 52 70 28 38 1016.1 1017.9 29.2
18/08:30pm 1.1 -11.0 1.0 99 0.0 SW 54 69 29 37 1015.9 1017.7 29.0
18/08:08pm 1.1 -9.1 1.0 99 0.0 SW 44 65 24 35 1016.1 1017.9 28.4
18/08:00pm 1.0 -10.3 0.9 99 0.0 SSW 50 65 27 35 1016.1 1017.9 28.0
18/07:33pm 1.1 -10.6 1.0 99 0.0 SW 52 70 28 38 1015.7 1017.5 27.2
18/07:30pm 1.1 -10.2 1.0 99 0.0 SW 50 65 27 35 1015.9 1017.7 27.0
18/07:04pm 1.1 -9.5 1.0 99 0.0 SSW 46 69 25 37 1015.8 1017.6 26.0
18/07:00pm 0.8 -10.6 0.7 99 0.0 SSW 50 67 27 36 1015.7 1017.5 25.8
18/06:30pm 0.9 -10.1 0.8 99 0.0 SW 48 70 26 38 1015.3 1017.1 23.2
18/06:20pm 0.8 -9.4 0.7 99 0.0 SW 44 65 24 35 1015.4 1017.2 22.2
18/06:00pm 0.2 -11.3 0.1 99 0.0 SW 50 63 27 34 1015.3 1017.1 21.6
18/05:30pm 0.7 -10.3 0.6 99 0.0 SW 48 65 26 35 1015.6 1017.4 21.4
18/05:01pm 0.9 -9.1 0.8 99 0.0 WSW 43 61 23 33 1015.3 1017.1 20.2
18/05:00pm 0.7 -9.6 0.6 99 0.0 WSW 44 61 24 33 1015.2 1017.0 20.2
18/04:30pm 1.0 -10.0 0.9 99 0.0 WSW 48 63 26 34 1015.0 1016.8 20.2
18/04:29pm 0.9 -10.1 0.8 99 0.0 WSW 48 69 26 37 1015.2 1017.0 20.0
18/04:00pm 0.8 -11.0 0.7 99 0.0 SW 52 67 28 36 1015.0 1016.8 19.4
18/03:35pm 0.5 -9.6 0.4 99 0.0 WSW 43 63 23 34 1015.2 1017.0 18.4
18/03:30pm 0.6 -10.0 0.5 99 0.0 WSW 46 59 25 32 1015.3 1017.1 18.2
18/03:11pm 0.8 -8.9 0.7 99 0.0 WSW 41 59 22 32 1015.3 1017.1 17.4
18/03:00pm 0.7 -9.9 0.6 99 0.0 WSW 46 61 25 33 1015.3 1017.1 16.6
18/02:30pm 0.5 -9.8 0.4 99 0.0 SW 44 56 24 30 1015.6 1017.4 15.0
18/02:00pm 0.5 -9.2 0.4 99 0.0 SW 41 54 22 29 1015.8 1017.6 12.8
18/01:30pm 0.2 -9.9 0.1 99 0.0 SW 43 56 23 30 1015.7 1017.5 11.2
18/01:01pm 0.2 -10.1 0.1 99 0.0 SW 44 67 24 36 1015.4 1017.2 10.0
18/01:00pm 0.2 -9.9 0.1 99 0.0 SW 43 57 23 31 1015.6 1017.4 10.0
18/12:30pm 0.1 -8.9 0.0 99 0.0 SSW 37 48 20 26 1015.7 1017.5 8.8
18/12:11pm 0.2 -8.4 0.1 99 0.0 SW 35 57 19 31 1015.7 1017.5 8.2
18/12:00pm 0.3 -9.1 0.2 99 0.0 SW 39 50 21 27 1015.6 1017.4 7.6
18/11:30am 0.1 -7.2 0.0 99 0.0 SW 28 41 15 22 1015.8 1017.6 5.8
18/11:00am 0.0 -7.3 -0.1 99 0.0 SW 28 33 15 18 1015.7 1017.5 3.6
18/10:30am 0.0 -7.3 -0.1 99 0.0 SSW 28 39 15 21 1015.6 1017.4 1.4
18/10:00am -0.1 -8.2 -0.2 99 0.0 SW 32 43 17 23 1015.6 1017.4 0.2
18/09:30am -0.2 -9.3 -0.3 99 0.0 SSW 37 46 20 25 1015.1 1016.9 0.0
18/09:00am -0.5 -9.2 -0.6 99 0.0 SSW 35 44 19 24 1015.0 1016.8 5.6
18/08:30am -0.3 -7.7 -0.4 99 0.0 SSW 28 37 15 20 1014.4 1016.2 5.6
18/08:00am -0.4 -7.4 -0.5 99 0.0 SSW 26 32 14 17 1014.1 1015.9 5.6
18/07:30am -0.7 -7.4 -0.8 99 0.0 SSW 24 32 13 17 1013.9 1015.6 5.6
18/07:00am -0.7 -7.7 -0.8 99 0.0 SSW 26 30 14 16 1013.3 1015.1 5.6
18/06:30am -0.6 -8.8 -0.7 99 0.0 SSW 32 39 17 21 1012.8 1014.5 5.6
18/06:00am -0.9 -8.3 -1.0 99 0.0 SSW 28 35 15 19 1012.3 1014.0 5.6
18/05:30am -0.9 -8.0 -1.0 99 0.0 SSW 26 32 14 17 1012.2 1013.9 5.6
18/05:00am -0.7 -7.7 -0.8 99 0.0 SSW 26 33 14 18 1011.6 1013.4 5.6
18/04:30am -0.9 -8.7 -1.0 99 0.0 SSW 30 35 16 19 1011.4 1013.1 5.6
18/04:00am -1.2 -8.3 -1.3 99 0.0 SSW 26 32 14 17 1011.5 1013.2 5.6
18/03:30am -1.3 -9.6 -1.4 99 0.0 SSW 32 39 17 21 1011.0 1012.7 5.6
18/03:00am -1.1 -9.0 -1.2 99 0.0 SSW 30 37 16 20 1010.8 1012.4 5.6
18/02:30am -0.9 -9.1 -1.0 99 0.0 SSW 32 41 17 22 1010.6 1012.3 5.6
18/02:00am -1.3 -9.7 -1.4 99 0.0 SSW 33 39 18 21 1010.4 1012.1 5.6
18/01:30am -1.0 -8.8 -1.1 99 0.0 SSW 30 35 16 19 1010.6 1012.3 5.6
18/01:00am -1.3 -8.8 -1.4 99 0.0 SSW 28 35 15 19 1010.3 1012.0 5.6
18/12:30am -1.1 -9.5 -1.2 99 0.0 SSW 33 44 18 24 1010.2 1011.9 5.6
18/12:00am -1.5 -11.1 -1.6 99 0.0 SSW 39 46 21 25 1009.5 1011.2 5.6
 
Date/Time
EST
Temp
°C
App
Temp
°C
Dew
Point
Rel
Hum
%
Delta-T
°C
Wind Press
QNH
hPa
Press
MSL
hPa
Rain
since 9 am
mm
Dir
 
Spd
km/h
Gust
km/h
Spd
kts
Gust
kts
17/11:30pm -1.1 -9.9 -1.2 99 0.0 SSW 35 46 19 25 1009.4 1011.1 5.6
17/11:00pm -1.4 -9.9 -1.5 99 0.0 SSW 33 39 18 21 1009.3 1010.9 5.6
17/10:30pm -1.2 -10.4 -1.3 99 0.0 SSW 37 44 20 24 1008.8 1010.4 5.6
17/10:00pm -1.2 -10.0 -1.3 99 0.0 SSW 35 44 19 24 1008.8 1010.4 5.6
17/09:30pm -1.2 -10.0 -1.3 99 0.0 SSW 35 48 19 26 1008.3 1009.9 5.6
17/09:00pm -1.4 -10.6 -1.5 99 0.0 SSW 37 50 20 27 1007.7 1009.3 5.6
17/08:30pm -1.6 -12.0 -1.7 99 0.0 SW 43 52 23 28 1007.0 1008.5 5.6
17/08:00pm -1.4 -11.0 -1.5 99 0.0 SW 39 54 21 29 1006.7 1008.3 5.6
17/07:30pm -1.4 -11.4 -1.5 99 0.0 SSW 41 56 22 30 1006.4 1008.0 5.6
17/07:21pm -1.2 -10.4 -1.3 99 0.0 SW 37 56 20 30 1006.2 1007.7 5.6
17/07:00pm -1.2 -10.0 -1.3 99 0.0 SW 35 46 19 25 1006.2 1007.7 5.6
17/06:30pm -1.1 -11.4 -1.2 99 0.0 SW 43 59 23 32 1005.9 1007.4 5.6
17/06:22pm -1.1 -11.0 -1.2 99 0.0 SW 41 59 22 32 1005.5 1007.1 5.6
17/06:00pm -1.5 -10.0 -1.6 99 0.0 SW 33 46 18 25 1005.6 1007.2 5.6
17/05:35pm -1.6 -10.5 -1.7 99 0.0 SW 35 54 19 29 1005.3 1006.8 5.6
17/05:30pm -1.5 -10.0 -1.6 99 0.0 SW 33 50 18 27 1005.3 1006.8 5.6
17/05:00pm -1.5 -11.5 -1.6 99 0.0 SW 41 59 22 32 1005.2 1006.7 5.6
17/04:45pm -1.5 -10.4 -1.6 99 0.0 SW 35 59 19 32 1004.8 1006.4 5.6
17/04:30pm -1.6 -11.2 -1.7 99 0.0 SW 39 52 21 28 1004.7 1006.2 5.6
17/04:00pm -1.7 -12.1 -1.8 99 0.0 SSW 43 59 23 32 1004.2 1005.7 5.6

Other Formats:

Comma delimited format used in spreadsheet applications
http://www.bom.gov.au/fwo/IDT60801/IDT60801.95952.axf

JavaScript Object Notation format (JSON) in row-major order
http://www.bom.gov.au/fwo/IDT60801/IDT60801.95952.json